createdAt,value
2017-08-05T00:00:26.900Z,0
2017-08-05T00:01:07.790Z,0
2017-08-05T00:01:48.665Z,0
2017-08-05T00:02:29.535Z,0
2017-08-05T00:03:10.406Z,0
2017-08-05T00:03:51.311Z,0
2017-08-05T00:04:32.185Z,0
2017-08-05T00:05:13.072Z,0
2017-08-05T00:05:53.997Z,0
2017-08-05T00:06:34.874Z,0
2017-08-05T00:07:15.735Z,0
2017-08-05T00:07:56.618Z,0
2017-08-05T00:08:37.527Z,0
2017-08-05T00:09:18.407Z,0
2017-08-05T00:09:59.283Z,0
2017-08-05T00:10:40.154Z,0
2017-08-05T00:11:21.040Z,0
2017-08-05T00:12:01.941Z,0
2017-08-05T00:12:42.818Z,0
2017-08-05T00:13:23.678Z,0
2017-08-05T00:14:04.559Z,0
2017-08-05T00:14:45.451Z,0
2017-08-05T00:15:26.345Z,0
2017-08-05T00:16:07.242Z,0
2017-08-05T00:16:48.140Z,0
2017-08-05T00:17:29.021Z,0
2017-08-05T00:18:09.923Z,0
2017-08-05T00:18:50.854Z,0
2017-08-05T00:19:31.744Z,0
2017-08-05T00:20:12.651Z,0
2017-08-05T00:20:53.539Z,0
2017-08-05T00:21:34.434Z,0
2017-08-05T00:22:15.328Z,0
2017-08-05T00:22:56.207Z,0
2017-08-05T00:23:37.109Z,0
2017-08-05T00:24:17.998Z,0
2017-08-05T00:24:58.888Z,0
2017-08-05T00:25:39.793Z,0
2017-08-05T00:26:20.680Z,0
2017-08-05T00:27:01.577Z,0
2017-08-05T00:27:42.455Z,0
2017-08-05T00:28:23.355Z,0
2017-08-05T00:29:04.242Z,0
2017-08-05T00:29:45.181Z,0
2017-08-05T00:30:26.066Z,0
2017-08-05T00:31:06.966Z,0
2017-08-05T00:31:47.860Z,0
2017-08-05T00:32:28.751Z,0
2017-08-05T00:33:09.648Z,0
2017-08-05T00:33:50.543Z,0
2017-08-05T00:34:31.437Z,0
2017-08-05T00:35:12.330Z,0
2017-08-05T00:35:53.225Z,0
2017-08-05T00:36:34.114Z,0
2017-08-05T00:37:15.017Z,0
2017-08-05T00:37:55.903Z,0
2017-08-05T00:38:36.806Z,0
2017-08-05T00:39:17.704Z,0
2017-08-05T00:39:58.595Z,0
2017-08-05T00:40:39.513Z,0
2017-08-05T00:41:20.389Z,0
2017-08-05T00:42:01.281Z,0
2017-08-05T00:42:42.168Z,0
2017-08-05T00:43:23.067Z,0
2017-08-05T00:44:03.953Z,0
2017-08-05T00:44:44.844Z,0
2017-08-05T00:45:25.737Z,0
2017-08-05T00:46:06.626Z,0
2017-08-05T00:46:47.546Z,0
2017-08-05T00:47:28.433Z,0
2017-08-05T00:48:09.329Z,0
2017-08-05T00:48:50.227Z,0
2017-08-05T00:49:31.117Z,0
2017-08-05T00:50:12.021Z,0
2017-08-05T00:50:52.901Z,0
2017-08-05T00:51:33.794Z,0
2017-08-05T00:52:14.712Z,0
2017-08-05T00:52:55.601Z,0
2017-08-05T00:53:36.483Z,0
2017-08-05T00:54:17.377Z,0
2017-08-05T00:54:58.265Z,0
2017-08-05T00:55:39.162Z,0
2017-08-05T00:56:20.050Z,0
2017-08-05T00:57:00.942Z,0
2017-08-05T00:57:41.831Z,0
2017-08-05T00:58:22.724Z,0
2017-08-05T00:59:03.608Z,0
2017-08-05T00:59:44.502Z,0
2017-08-05T01:00:25.409Z,0
2017-08-05T01:01:06.298Z,0
2017-08-05T01:01:47.187Z,0
2017-08-05T01:02:28.078Z,0
2017-08-05T01:03:08.969Z,0
2017-08-05T01:03:49.865Z,0
2017-08-05T01:04:30.771Z,0
2017-08-05T01:05:11.665Z,0
2017-08-05T01:05:52.566Z,0
2017-08-05T01:06:33.461Z,0
2017-08-05T01:07:14.355Z,0
2017-08-05T01:07:55.245Z,0
2017-08-05T01:08:36.146Z,0
2017-08-05T01:09:17.029Z,0
2017-08-05T01:09:57.922Z,0
2017-08-05T01:10:38.814Z,0
2017-08-05T01:11:19.706Z,0
2017-08-05T01:12:00.601Z,0
2017-08-05T01:12:41.490Z,0
2017-08-05T01:13:22.379Z,0
2017-08-05T01:14:03.272Z,0
2017-08-05T01:14:44.164Z,0
2017-08-05T01:15:25.053Z,0
2017-08-05T01:16:05.950Z,0
2017-08-05T01:16:46.840Z,0
2017-08-05T01:17:27.730Z,0
2017-08-05T01:18:08.628Z,0
2017-08-05T01:18:49.520Z,0
2017-08-05T01:19:30.415Z,0
2017-08-05T01:20:11.307Z,0
2017-08-05T01:20:52.196Z,0
2017-08-05T01:21:33.085Z,0
2017-08-05T01:22:13.993Z,0
2017-08-05T01:22:54.887Z,0
2017-08-05T01:23:35.784Z,0
2017-08-05T01:24:16.680Z,0
2017-08-05T01:24:57.575Z,0
2017-08-05T01:25:38.451Z,0
2017-08-05T01:26:19.347Z,0
2017-08-05T01:27:00.239Z,0
2017-08-05T01:27:41.140Z,0
2017-08-05T01:28:22.038Z,0
2017-08-05T01:29:02.919Z,0
2017-08-05T01:29:43.816Z,0
2017-08-05T01:30:24.738Z,0
2017-08-05T01:31:05.641Z,0
2017-08-05T01:31:46.520Z,0
2017-08-05T01:32:27.412Z,0
2017-08-05T01:33:08.311Z,0
2017-08-05T01:33:49.213Z,0
2017-08-05T01:34:30.109Z,0
2017-08-05T01:35:11.001Z,0
2017-08-05T01:35:51.896Z,0
2017-08-05T01:36:32.783Z,0
2017-08-05T01:37:13.680Z,0
2017-08-05T01:37:54.564Z,0
2017-08-05T01:38:35.465Z,0
2017-08-05T01:39:16.358Z,0
2017-08-05T01:39:57.269Z,0
2017-08-05T01:40:38.157Z,0
2017-08-05T01:41:19.053Z,0
2017-08-05T01:41:59.936Z,0
2017-08-05T01:42:40.834Z,0
2017-08-05T01:43:21.726Z,0
2017-08-05T01:44:02.618Z,0
2017-08-05T01:44:43.539Z,0
2017-08-05T01:45:24.435Z,0
2017-08-05T01:46:05.327Z,0
2017-08-05T01:46:46.227Z,0
2017-08-05T01:47:27.125Z,0
2017-08-05T01:48:08.012Z,0
2017-08-05T01:48:48.904Z,0
2017-08-05T01:49:29.801Z,0
2017-08-05T01:50:10.701Z,0
2017-08-05T01:50:51.597Z,0
2017-08-05T01:51:32.499Z,0
2017-08-05T01:52:13.392Z,0
2017-08-05T01:52:54.292Z,0
2017-08-05T01:53:35.179Z,0
2017-08-05T01:54:16.068Z,0
2017-08-05T01:54:56.965Z,0
2017-08-05T01:55:37.858Z,0
2017-08-05T01:56:18.754Z,0
2017-08-05T01:56:59.644Z,0
2017-08-05T01:57:40.536Z,0
2017-08-05T01:58:21.429Z,0
2017-08-05T01:59:02.327Z,0
2017-08-05T01:59:43.224Z,0
2017-08-05T02:00:24.116Z,0
2017-08-05T02:01:05.002Z,0
2017-08-05T02:01:45.898Z,0
2017-08-05T02:02:26.790Z,0
2017-08-05T02:03:07.700Z,0
2017-08-05T02:03:48.589Z,0
2017-08-05T02:04:29.479Z,0
2017-08-05T02:05:10.380Z,0
2017-08-05T02:05:51.276Z,0
2017-08-05T02:06:32.175Z,0
2017-08-05T02:07:13.067Z,0
2017-08-05T02:07:53.956Z,0
2017-08-05T02:08:34.851Z,0
2017-08-05T02:09:15.741Z,0
2017-08-05T02:09:56.633Z,0
2017-08-05T02:10:37.536Z,0
2017-08-05T02:11:18.424Z,0
2017-08-05T02:11:59.328Z,0
2017-08-05T02:12:40.211Z,0
2017-08-05T02:13:21.103Z,0
2017-08-05T02:14:02.004Z,0
2017-08-05T02:14:42.896Z,0
2017-08-05T02:15:23.795Z,0
2017-08-05T02:16:04.684Z,0
2017-08-05T02:16:45.586Z,0
2017-08-05T02:17:26.467Z,0
2017-08-05T02:18:07.360Z,0
2017-08-05T02:18:48.250Z,0
2017-08-05T02:19:29.134Z,0
2017-08-05T02:20:10.029Z,0
2017-08-05T02:20:50.915Z,0
2017-08-05T02:21:31.798Z,0
2017-08-05T02:22:12.695Z,0
2017-08-05T02:22:53.588Z,0
2017-08-05T02:23:34.478Z,0
2017-08-05T02:24:15.371Z,0
2017-08-05T02:24:56.272Z,0
2017-08-05T02:25:37.158Z,0
2017-08-05T02:26:18.050Z,0
2017-08-05T02:26:58.941Z,0
2017-08-05T02:27:39.822Z,0
2017-08-05T02:28:20.740Z,0
2017-08-05T02:29:01.637Z,0
2017-08-05T02:29:42.533Z,0
2017-08-05T02:30:23.443Z,0
2017-08-05T02:31:04.334Z,0
2017-08-05T02:31:45.221Z,0
2017-08-05T02:32:26.118Z,0
2017-08-05T02:33:07.006Z,0
2017-08-05T02:33:47.895Z,0
2017-08-05T02:34:28.791Z,0
2017-08-05T02:35:09.683Z,0
2017-08-05T02:35:50.602Z,0
2017-08-05T02:36:31.488Z,0
2017-08-05T02:37:12.381Z,0
2017-08-05T02:37:53.279Z,0
2017-08-05T02:38:34.168Z,0
2017-08-05T02:39:15.060Z,0
2017-08-05T02:39:55.957Z,0
2017-08-05T02:40:36.845Z,0
2017-08-05T02:41:17.744Z,0
2017-08-05T02:41:58.637Z,0
2017-08-05T02:42:39.527Z,0
2017-08-05T02:43:20.415Z,0
2017-08-05T02:44:01.305Z,0
2017-08-05T02:44:42.200Z,0
2017-08-05T02:45:23.093Z,0
2017-08-05T02:46:03.993Z,0
2017-08-05T02:46:44.879Z,0
2017-08-05T02:47:25.781Z,0
2017-08-05T02:48:06.675Z,0
2017-08-05T02:48:47.568Z,0
2017-08-05T02:49:28.461Z,0
2017-08-05T02:50:09.349Z,0
2017-08-05T02:50:50.237Z,0
2017-08-05T02:51:31.128Z,4
2017-08-05T02:52:12.022Z,4
2017-08-05T02:52:52.908Z,4
2017-08-05T02:53:33.802Z,4
2017-08-05T02:54:14.702Z,0
2017-08-05T02:54:55.606Z,0
2017-08-05T02:55:36.498Z,0
2017-08-05T02:56:17.390Z,4
2017-08-05T02:56:58.282Z,4
2017-08-05T02:57:39.177Z,4
2017-08-05T02:58:20.084Z,0
2017-08-05T02:59:00.962Z,4
2017-08-05T02:59:41.861Z,4
2017-08-05T03:00:22.753Z,8
2017-08-05T03:01:03.661Z,4
2017-08-05T03:01:44.549Z,8
2017-08-05T03:02:25.445Z,4
2017-08-05T03:03:06.337Z,8
2017-08-05T03:03:47.230Z,4
2017-08-05T03:04:28.127Z,8
2017-08-05T03:05:09.023Z,8
2017-08-05T03:05:49.904Z,8
2017-08-05T03:06:30.802Z,12
2017-08-05T03:07:11.699Z,12
2017-08-05T03:07:52.581Z,12
2017-08-05T03:08:33.473Z,16
2017-08-05T03:09:14.372Z,16
2017-08-05T03:09:55.263Z,20
2017-08-05T03:10:36.156Z,20
2017-08-05T03:11:17.050Z,24
2017-08-05T03:11:57.944Z,20
2017-08-05T03:12:38.841Z,24
2017-08-05T03:13:19.730Z,28
2017-08-05T03:14:00.633Z,28
2017-08-05T03:14:41.525Z,32
2017-08-05T03:15:22.410Z,32
2017-08-05T03:16:03.301Z,40
2017-08-05T03:16:44.203Z,40
2017-08-05T03:17:25.098Z,44
2017-08-05T03:18:06.001Z,48
2017-08-05T03:18:46.893Z,48
2017-08-05T03:19:27.782Z,52
2017-08-05T03:20:08.678Z,60
2017-08-05T03:20:49.571Z,64
2017-08-05T03:21:30.465Z,68
2017-08-05T03:22:11.367Z,76
2017-08-05T03:22:52.253Z,80
2017-08-05T03:23:33.145Z,84
2017-08-05T03:24:14.046Z,88
2017-08-05T03:24:54.933Z,96
2017-08-05T03:25:35.808Z,104
2017-08-05T03:26:16.715Z,108
2017-08-05T03:26:57.601Z,116
2017-08-05T03:27:38.486Z,124
2017-08-05T03:28:19.379Z,132
2017-08-05T03:29:00.274Z,136
2017-08-05T03:29:41.152Z,144
2017-08-05T03:30:22.045Z,156
2017-08-05T03:31:02.953Z,160
2017-08-05T03:31:43.866Z,168
2017-08-05T03:32:24.764Z,180
2017-08-05T03:33:05.650Z,188
2017-08-05T03:33:46.552Z,200
2017-08-05T03:34:27.445Z,208
2017-08-05T03:35:08.335Z,220
2017-08-05T03:35:49.230Z,228
2017-08-05T03:36:30.121Z,240
2017-08-05T03:37:11.008Z,248
2017-08-05T03:37:51.910Z,260
2017-08-05T03:38:32.796Z,272
2017-08-05T03:39:13.678Z,284
2017-08-05T03:39:54.560Z,292
2017-08-05T03:40:35.471Z,304
2017-08-05T03:41:16.352Z,320
2017-08-05T03:41:57.241Z,328
2017-08-05T03:42:38.151Z,340
2017-08-05T03:43:19.023Z,352
2017-08-05T03:43:59.906Z,368
2017-08-05T03:44:40.803Z,380
2017-08-05T03:45:21.685Z,396
2017-08-05T03:46:02.562Z,408
2017-08-05T03:46:43.457Z,424
2017-08-05T03:47:24.362Z,436
2017-08-05T03:48:05.241Z,456
2017-08-05T03:48:46.130Z,468
2017-08-05T03:49:27.028Z,484
2017-08-05T03:50:07.906Z,500
2017-08-05T03:50:48.781Z,516
2017-08-05T03:51:29.688Z,532
2017-08-05T03:52:10.582Z,548
2017-08-05T03:52:51.458Z,564
2017-08-05T03:53:32.350Z,584
2017-08-05T03:54:13.250Z,600
2017-08-05T03:54:54.127Z,612
2017-08-05T03:55:35.039Z,636
2017-08-05T03:56:15.935Z,652
2017-08-05T03:56:56.803Z,668
2017-08-05T03:57:37.693Z,688
2017-08-05T03:58:18.601Z,704
2017-08-05T03:58:59.476Z,720
2017-08-05T03:59:40.372Z,736
2017-08-05T04:00:21.272Z,756
2017-08-05T04:01:02.149Z,772
2017-08-05T04:01:43.027Z,788
2017-08-05T04:02:23.957Z,804
2017-08-05T04:03:04.830Z,820
2017-08-05T04:03:45.726Z,836
2017-08-05T04:04:26.622Z,856
2017-08-05T04:05:07.511Z,876
2017-08-05T04:05:48.423Z,892
2017-08-05T04:06:29.330Z,912
2017-08-05T04:07:10.218Z,928
2017-08-05T04:07:51.120Z,944
2017-08-05T04:08:32.000Z,960
2017-08-05T04:09:12.894Z,980
2017-08-05T04:09:53.790Z,996
2017-08-05T04:10:34.675Z,1016
2017-08-05T04:11:15.561Z,1032
2017-08-05T04:11:56.459Z,1048
2017-08-05T04:12:37.343Z,1060
2017-08-05T04:13:18.242Z,1072
2017-08-05T04:13:59.125Z,1088
2017-08-05T04:14:40.015Z,1104
2017-08-05T04:15:20.910Z,1116
2017-08-05T04:16:01.804Z,1132
2017-08-05T04:16:42.692Z,1152
2017-08-05T04:17:23.595Z,1168
2017-08-05T04:18:04.489Z,1192
2017-08-05T04:18:45.376Z,1212
2017-08-05T04:19:26.270Z,1228
2017-08-05T04:20:07.169Z,1248
2017-08-05T04:20:48.059Z,1264
2017-08-05T04:21:28.948Z,1276
2017-08-05T04:22:09.845Z,1292
2017-08-05T04:22:50.733Z,1304
2017-08-05T04:23:31.641Z,1324
2017-08-05T04:24:12.522Z,1344
2017-08-05T04:24:53.410Z,1360
2017-08-05T04:25:34.316Z,1372
2017-08-05T04:26:15.204Z,1376
2017-08-05T04:26:56.091Z,1380
2017-08-05T04:27:36.991Z,1380
2017-08-05T04:28:17.878Z,1388
2017-08-05T04:28:58.783Z,1404
2017-08-05T04:29:39.687Z,1424
2017-08-05T04:30:20.564Z,1436
2017-08-05T04:31:01.459Z,1448
2017-08-05T04:31:42.347Z,1464
2017-08-05T04:32:23.234Z,1468
2017-08-05T04:33:04.119Z,1488
2017-08-05T04:33:45.018Z,1508
2017-08-05T04:34:25.916Z,1528
2017-08-05T04:35:06.808Z,1552
2017-08-05T04:35:47.740Z,1572
2017-08-05T04:36:28.628Z,1588
2017-08-05T04:37:09.533Z,1604
2017-08-05T04:37:50.428Z,1620
2017-08-05T04:38:31.321Z,1632
2017-08-05T04:39:12.214Z,1648
2017-08-05T04:39:53.098Z,1668
2017-08-05T04:40:33.977Z,1684
2017-08-05T04:41:14.884Z,1700
2017-08-05T04:41:56.938Z,1708
2017-08-05T04:42:37.814Z,1724
2017-08-05T04:43:18.705Z,1748
2017-08-05T04:43:59.597Z,1776
2017-08-05T04:44:40.489Z,1804
2017-08-05T04:45:21.371Z,1832
2017-08-05T04:46:02.264Z,1856
2017-08-05T04:48:16.424Z,1928
2017-08-05T04:48:57.320Z,1940
2017-08-05T04:49:38.209Z,1956
2017-08-05T04:50:19.105Z,1988
2017-08-05T04:51:00.005Z,2028
2017-08-05T04:51:40.884Z,2132
2017-08-05T04:52:21.774Z,2216
2017-08-05T04:53:02.660Z,2276
2017-08-05T04:53:43.572Z,2308
2017-08-05T04:54:24.448Z,2352
2017-08-05T04:55:05.362Z,2516
2017-08-05T04:55:46.246Z,2700
2017-08-05T04:56:27.151Z,2780
2017-08-05T04:57:08.036Z,2792
2017-08-05T04:57:48.918Z,2684
2017-08-05T04:58:29.799Z,2544
2017-08-05T04:59:10.701Z,2444
2017-08-05T04:59:51.594Z,2384
2017-08-05T05:00:32.462Z,2380
2017-08-05T05:01:13.381Z,2392
2017-08-05T05:01:54.266Z,2424
2017-08-05T05:02:35.153Z,2444
2017-08-05T05:03:16.047Z,2468
2017-08-05T05:03:57.044Z,2484
2017-08-05T05:04:37.895Z,2492
2017-08-05T05:05:18.774Z,2508
2017-08-05T05:05:59.667Z,2520
2017-08-05T05:06:40.555Z,2540
2017-08-05T05:07:21.436Z,2556
2017-08-05T05:08:02.326Z,2580
2017-08-05T05:08:43.225Z,2596
2017-08-05T05:09:24.103Z,2620
2017-08-05T05:10:04.996Z,2652
2017-08-05T05:10:45.898Z,2680
2017-08-05T05:11:26.776Z,2708
2017-08-05T05:12:07.646Z,2740
2017-08-05T05:12:48.550Z,2784
2017-08-05T05:13:29.441Z,2836
2017-08-05T05:14:10.321Z,2876
2017-08-05T05:14:51.208Z,2920
2017-08-05T05:15:32.108Z,2952
2017-08-05T05:16:12.980Z,2984
2017-08-05T05:16:53.859Z,3016
2017-08-05T05:17:34.746Z,3060
2017-08-05T05:18:15.653Z,3132
2017-08-05T05:18:56.534Z,3232
2017-08-05T05:19:37.437Z,3408
2017-08-05T05:20:18.326Z,3536
2017-08-05T05:20:59.209Z,3428
2017-08-05T05:21:40.115Z,3320
2017-08-05T05:22:20.993Z,3300
2017-08-05T05:23:01.879Z,3344
2017-08-05T05:23:42.772Z,3412
2017-08-05T05:25:56.934Z,3800
2017-08-05T05:26:37.815Z,3920
2017-08-05T05:27:18.684Z,4008
2017-08-05T05:27:59.562Z,4152
2017-08-05T05:28:40.470Z,4340
2017-08-05T05:29:21.353Z,4540
2017-08-05T05:30:02.234Z,4708
2017-08-05T05:30:43.130Z,4860
2017-08-05T05:31:24.030Z,4864
2017-08-05T05:32:04.906Z,4680
2017-08-05T05:32:45.824Z,4460
2017-08-05T05:33:26.720Z,4408
2017-08-05T05:34:07.620Z,4508
2017-08-05T05:34:48.519Z,4636
2017-08-05T05:35:29.392Z,4772
2017-08-05T05:36:10.288Z,5016
2017-08-05T05:36:51.194Z,5248
2017-08-05T05:37:32.072Z,5444
2017-08-05T05:38:12.998Z,5512
2017-08-05T05:38:53.869Z,5556
2017-08-05T05:39:34.741Z,5696
2017-08-05T05:40:15.609Z,5916
2017-08-05T05:40:56.501Z,5988
2017-08-05T05:41:37.398Z,5904
2017-08-05T05:42:18.274Z,5696
2017-08-05T05:42:59.154Z,5508
2017-08-05T05:43:40.042Z,5292
2017-08-05T05:44:20.946Z,5124
2017-08-05T05:45:01.821Z,5028
2017-08-05T05:45:42.717Z,4924
2017-08-05T05:46:23.609Z,4952
2017-08-05T05:47:04.494Z,4828
2017-08-05T05:47:45.383Z,5020
2017-08-05T05:48:26.286Z,5152
2017-08-05T05:49:07.173Z,5268
2017-08-05T05:49:48.063Z,5240
2017-08-05T05:50:28.963Z,5252
2017-08-05T05:51:09.840Z,5484
2017-08-05T05:51:50.724Z,5876
2017-08-05T05:52:31.620Z,6176
2017-08-05T05:53:12.507Z,6200
2017-08-05T05:53:53.403Z,5912
2017-08-05T05:54:34.319Z,5496
2017-08-05T05:55:15.208Z,5044
2017-08-05T05:55:56.105Z,4984
2017-08-05T05:56:36.994Z,5024
2017-08-05T05:57:17.880Z,5020
2017-08-05T05:57:58.773Z,5024
2017-08-05T05:58:39.704Z,5072
2017-08-05T05:59:20.656Z,5148
2017-08-05T06:00:01.547Z,5304
2017-08-05T06:00:42.445Z,5600
2017-08-05T06:01:23.335Z,5968
2017-08-05T06:02:04.228Z,5964
2017-08-05T06:02:45.125Z,5820
2017-08-05T06:03:26.010Z,5744
2017-08-05T06:04:06.905Z,5356
2017-08-05T06:04:47.799Z,5744
2017-08-05T06:05:28.685Z,5740
2017-08-05T06:06:09.594Z,5880
2017-08-05T06:06:50.493Z,5908
2017-08-05T06:07:31.412Z,5888
2017-08-05T06:08:12.319Z,5872
2017-08-05T06:08:53.840Z,5784
2017-08-05T06:09:34.723Z,5696
2017-08-05T06:10:15.690Z,5604
2017-08-05T06:10:56.571Z,5720
2017-08-05T06:11:37.532Z,5984
2017-08-05T06:12:18.435Z,6320
2017-08-05T06:12:59.331Z,6700
2017-08-05T06:13:40.230Z,7108
2017-08-05T06:14:21.140Z,7288
2017-08-05T06:15:02.036Z,7320
2017-08-05T06:15:42.934Z,7408
2017-08-05T06:16:23.817Z,7808
2017-08-05T06:17:04.711Z,8520
2017-08-05T06:17:45.619Z,9304
2017-08-05T06:18:26.501Z,10120
2017-08-05T06:19:07.386Z,10496
2017-08-05T06:19:48.286Z,10352
2017-08-05T06:20:29.202Z,10048
2017-08-05T06:21:10.104Z,10140
2017-08-05T06:21:50.991Z,9860
2017-08-05T06:22:31.884Z,9648
2017-08-05T06:23:12.788Z,9724
2017-08-05T06:23:53.683Z,9208
2017-08-05T06:24:34.586Z,8424
2017-08-05T06:25:15.485Z,8336
2017-08-05T06:25:56.374Z,7176
2017-08-05T06:26:37.261Z,5336
2017-08-05T06:27:18.265Z,5340
2017-08-05T06:29:32.459Z,5720
2017-08-05T06:30:13.356Z,5796
2017-08-05T06:30:54.232Z,6076
2017-08-05T06:31:35.122Z,7548
2017-08-05T06:32:16.025Z,9108
2017-08-05T06:32:56.918Z,9764
2017-08-05T06:33:37.822Z,9688
2017-08-05T06:34:18.728Z,9888
2017-08-05T06:34:59.624Z,10224
2017-08-05T06:35:40.637Z,10396
2017-08-05T06:36:21.461Z,10680
2017-08-05T06:37:02.343Z,10768
2017-08-05T06:37:43.256Z,10772
2017-08-05T06:38:24.153Z,11092
2017-08-05T06:39:05.041Z,11196
2017-08-05T06:39:45.931Z,11316
2017-08-05T06:40:26.834Z,11372
2017-08-05T06:41:07.723Z,11256
2017-08-05T06:41:48.625Z,11436
2017-08-05T06:42:29.519Z,11572
2017-08-05T06:43:10.417Z,11564
2017-08-05T06:43:51.339Z,11636
2017-08-05T06:44:32.232Z,11620
2017-08-05T06:45:13.131Z,11648
2017-08-05T06:45:54.019Z,11656
2017-08-05T06:46:34.915Z,11788
2017-08-05T06:47:15.814Z,11884
2017-08-05T06:47:56.743Z,11908
2017-08-05T06:48:37.642Z,12116
2017-08-05T06:49:18.536Z,12260
2017-08-05T06:49:59.433Z,12280
2017-08-05T06:50:40.335Z,12424
2017-08-05T06:51:21.231Z,12460
2017-08-05T06:52:02.135Z,12540
2017-08-05T06:52:43.017Z,12636
2017-08-05T06:53:23.913Z,12620
2017-08-05T06:54:04.817Z,12544
2017-08-05T06:54:45.713Z,12516
2017-08-05T06:55:26.604Z,12576
2017-08-05T06:56:07.502Z,11332
2017-08-05T06:56:48.390Z,12380
2017-08-05T06:57:29.294Z,12408
2017-08-05T06:58:10.196Z,12856
2017-08-05T06:58:51.099Z,13108
2017-08-05T06:59:31.994Z,13292
2017-08-05T07:00:12.890Z,13164
2017-08-05T07:00:53.794Z,12968
2017-08-05T07:01:34.690Z,12788
2017-08-05T07:02:15.601Z,12824
2017-08-05T07:02:56.498Z,12960
2017-08-05T07:03:37.401Z,12928
2017-08-05T07:04:18.294Z,12920
2017-08-05T07:04:59.199Z,13232
2017-08-05T07:05:40.108Z,13472
2017-08-05T07:06:21.070Z,13892
2017-08-05T07:07:01.972Z,17920
2017-08-05T07:07:42.885Z,26016
2017-08-05T07:08:23.785Z,35552
2017-08-05T07:09:04.689Z,41568
2017-08-05T07:09:45.586Z,42464
2017-08-05T07:10:26.496Z,42560
2017-08-05T07:11:07.402Z,42560
2017-08-05T07:11:48.304Z,42592
2017-08-05T07:12:29.205Z,43872
2017-08-05T07:13:10.097Z,44832
2017-08-05T07:13:51.005Z,46144
2017-08-05T07:14:31.901Z,47680
2017-08-05T07:15:12.806Z,48320
2017-08-05T07:15:53.708Z,49472
2017-08-05T07:16:34.608Z,45312
2017-08-05T07:17:15.515Z,42464
2017-08-05T07:17:56.409Z,42176
2017-08-05T07:18:37.317Z,40544
2017-08-05T07:19:18.213Z,44480
2017-08-05T07:19:59.118Z,47616
2017-08-05T07:20:40.023Z,54048
2017-08-05T07:21:20.928Z,53568
2017-08-05T07:22:01.835Z,52928
2017-08-05T07:22:42.734Z,52512
2017-08-05T07:23:23.634Z,51808
2017-08-05T07:24:04.537Z,51872
2017-08-05T07:24:45.446Z,51520
2017-08-05T07:25:26.349Z,52032
2017-08-05T07:26:07.245Z,52256
2017-08-05T07:26:48.152Z,52768
2017-08-05T07:27:29.063Z,53504
2017-08-05T07:28:09.972Z,54272
2017-08-05T07:28:50.864Z,56352
2017-08-05T07:29:31.770Z,57312
2017-08-05T07:30:12.675Z,58880
2017-08-05T07:30:53.587Z,60448
2017-08-05T07:31:34.491Z,59648
2017-08-05T07:32:15.405Z,59040
2017-08-05T07:32:56.309Z,58144
2017-08-05T07:33:37.220Z,58016
2017-08-05T07:34:18.112Z,57792
2017-08-05T07:34:59.016Z,58624
2017-08-05T07:35:39.923Z,59648
2017-08-05T07:36:20.819Z,59776
2017-08-05T07:37:01.724Z,60896
2017-08-05T07:37:42.623Z,63328
2017-08-05T07:38:23.532Z,65184
2017-08-05T07:39:04.437Z,66208
2017-08-05T07:39:45.344Z,66528
2017-08-05T07:40:26.287Z,65120
2017-08-05T07:41:07.195Z,64352
2017-08-05T07:41:48.110Z,63968
2017-08-05T07:42:29.013Z,63872
2017-08-05T07:43:09.921Z,60832
2017-08-05T07:43:50.871Z,63520
2017-08-05T07:44:31.778Z,58304
2017-08-05T07:45:12.691Z,46496
2017-08-05T07:45:53.587Z,31136
2017-08-05T07:46:34.495Z,19328
2017-08-05T07:47:15.404Z,16896
2017-08-05T07:47:56.311Z,15168
2017-08-05T07:48:37.215Z,14176
2017-08-05T07:49:18.128Z,13608
2017-08-05T07:49:59.032Z,13460
2017-08-05T07:50:39.948Z,13388
2017-08-05T07:51:20.836Z,13656
2017-08-05T07:52:02.648Z,13912
2017-08-05T07:52:43.549Z,14084
2017-08-05T07:53:24.464Z,13904
2017-08-05T07:54:05.369Z,12536
2017-08-05T07:54:46.277Z,12508
2017-08-05T07:55:27.189Z,12388
2017-08-05T07:56:08.091Z,12276
2017-08-05T07:56:49.005Z,12260
2017-08-05T07:57:29.920Z,12232
2017-08-05T07:58:10.826Z,12144
2017-08-05T07:58:51.733Z,12148
2017-08-05T07:59:32.650Z,12172
2017-08-05T08:00:13.543Z,12228
2017-08-05T08:00:54.453Z,12276
2017-08-05T08:02:48.197Z,12504
2017-08-05T08:03:29.110Z,12680
2017-08-05T08:04:10.002Z,13112
2017-08-05T08:04:50.914Z,17728
2017-08-05T08:05:31.822Z,34720
2017-08-05T08:06:12.733Z,51968
2017-08-05T08:06:53.635Z,58720
2017-08-05T08:07:34.539Z,60064
2017-08-05T08:08:15.440Z,64128
2017-08-05T08:08:56.388Z,71520
2017-08-05T08:09:37.291Z,75264
2017-08-05T08:10:18.222Z,76896
2017-08-05T08:10:59.598Z,77600
2017-08-05T08:11:40.506Z,80320
2017-08-05T08:12:21.415Z,82944
2017-08-05T08:13:02.325Z,83168
2017-08-05T08:13:43.235Z,81504
2017-08-05T08:14:24.132Z,81408
2017-08-05T08:15:05.041Z,77696
2017-08-05T08:15:45.938Z,75424
2017-08-05T08:16:26.861Z,72864
2017-08-05T08:17:07.770Z,71392
2017-08-05T08:17:48.691Z,70464
2017-08-05T08:18:29.583Z,70464
2017-08-05T08:19:10.510Z,66144
2017-08-05T08:19:51.422Z,52800
2017-08-05T08:20:32.322Z,43584
2017-08-05T08:21:13.238Z,53568
2017-08-05T08:21:54.148Z,39808
2017-08-05T08:22:35.051Z,80768
2017-08-05T08:23:15.938Z,76608
2017-08-05T08:23:56.845Z,82720
2017-08-05T08:24:38.520Z,38080
2017-08-05T08:25:19.532Z,78528
2017-08-05T08:26:00.423Z,75904
2017-08-05T08:26:41.330Z,75264
2017-08-05T08:27:22.240Z,74592
2017-08-05T08:28:03.153Z,74528
2017-08-05T08:28:44.120Z,75232
2017-08-05T08:29:25.013Z,75168
2017-08-05T08:30:05.913Z,77664
2017-08-05T08:30:46.804Z,78880
2017-08-05T08:32:25.280Z,86496
2017-08-05T08:33:06.203Z,87168
2017-08-05T08:33:47.161Z,88736
2017-08-05T08:34:28.075Z,88864
2017-08-05T08:35:08.998Z,86208
2017-08-05T08:37:23.232Z,80992
2017-08-05T08:38:04.143Z,52512
2017-08-05T08:38:45.046Z,52512
2017-08-05T08:39:25.963Z,62976
2017-08-05T08:40:06.850Z,80320
2017-08-05T08:40:47.729Z,78304
2017-08-05T08:41:28.638Z,75936
2017-08-05T08:42:09.522Z,77248
2017-08-05T08:42:50.438Z,78560
2017-08-05T08:43:31.353Z,78944
2017-08-05T08:44:12.336Z,81376
2017-08-05T08:44:53.227Z,80960
2017-08-05T08:45:34.116Z,84384
2017-08-05T08:46:15.087Z,84640
2017-08-05T08:48:29.293Z,76000
2017-08-05T08:49:10.181Z,92608
2017-08-05T08:49:51.066Z,38432
2017-08-05T08:50:31.967Z,24864
2017-08-05T08:51:12.854Z,34624
2017-08-05T08:51:53.733Z,91616
2017-08-05T08:52:34.642Z,57120
2017-08-05T08:53:15.539Z,60160
2017-08-05T08:53:56.441Z,57024
2017-08-05T08:54:37.369Z,39264
2017-08-05T08:55:18.271Z,46304
2017-08-05T08:55:59.183Z,42656
2017-08-05T08:56:40.102Z,31360
2017-08-05T08:57:21.007Z,25504
2017-08-05T08:58:01.945Z,46624
2017-08-05T09:00:00.775Z,80512
2017-08-05T09:00:41.675Z,76096
2017-08-05T09:01:22.573Z,80160
2017-08-05T09:02:03.506Z,63584
2017-08-05T09:02:44.434Z,42272
2017-08-05T09:03:25.323Z,33888
2017-08-05T09:04:06.203Z,30848
2017-08-05T09:04:47.101Z,28384
2017-08-05T09:05:28.036Z,19840
2017-08-05T09:06:08.890Z,18656
2017-08-05T09:06:49.787Z,21600
2017-08-05T09:07:30.675Z,46688
2017-08-05T09:08:11.567Z,85760
2017-08-05T09:08:52.462Z,86304
2017-08-05T09:09:33.347Z,47776
2017-08-05T09:10:14.248Z,54048
2017-08-05T09:10:55.149Z,40800
2017-08-05T09:11:36.045Z,39072
2017-08-05T09:12:16.957Z,30432
2017-08-05T09:12:57.850Z,57664
2017-08-05T09:13:38.756Z,71296
2017-08-05T09:14:19.654Z,70944
2017-08-05T09:15:00.542Z,47904
2017-08-05T09:15:41.444Z,92224
2017-08-05T09:17:35.176Z,48768
2017-08-05T09:18:16.062Z,35840
2017-08-05T09:18:56.965Z,55136
2017-08-05T09:19:37.870Z,74592
2017-08-05T09:20:18.779Z,55840
2017-08-05T09:20:59.681Z,47360
2017-08-05T09:21:40.585Z,80096
2017-08-05T09:22:21.470Z,76288
2017-08-05T09:23:02.376Z,72736
2017-08-05T09:23:43.271Z,94816
2017-08-05T09:24:24.179Z,93920
2017-08-05T09:25:05.086Z,88512
2017-08-05T09:25:45.977Z,79264
2017-08-05T09:26:26.867Z,57664
2017-08-05T09:27:07.762Z,101088
2017-08-05T09:27:48.643Z,107328
2017-08-05T09:28:29.557Z,18432
2017-08-05T09:29:10.449Z,15456
2017-08-05T09:29:51.370Z,16460
2017-08-05T09:30:32.274Z,89760
2017-08-05T09:31:13.288Z,14504
2017-08-05T09:31:54.198Z,15444
2017-08-05T09:32:35.114Z,95648